Time;durP1;ratioP1;P1;durP2;ratioP2;P2;SDS_P1;SDS_P2;PMS_P1;PMS_P2;Temp;Humidity;BMP_temperature;BMP_pressure;BME280_temperature;BME280_humidity;BME280_pressure;Samples;Min_cycle;Max_cycle;Signal;HPM_P1;HPM_P2
2021/06/22 08:11:50;;;;;;;80.42;10.45;;;;;;;28.24;56.74;99703.05;1715791;82;21273;-35
2021/06/22 08:14:17;;;;;;;63.58;9.50;;;;;;;28.18;58.19;99702.67;1752686;79;21039;-34
2021/06/22 08:16:45;;;;;;;51.70;7.95;;;;;;;28.24;58.78;99704.39;1759871;80;21010;-34
2021/06/22 08:19:12;;;;;;;73.25;9.60;;;;;;;28.33;58.34;99702.30;1760471;80;21665;-34
2021/06/22 08:21:39;;;;;;;74.70;9.63;;;;;;;28.39;58.20;99710.34;1757215;81;21063;-40
2021/06/22 08:24:06;;;;;;;69.85;11.20;;;;;;;28.45;57.83;99706.30;1756971;81;22345;-40
2021/06/22 08:26:34;;;;;;;69.12;10.23;;;;;;;28.52;57.50;99706.98;1763730;80;21650;-34
2021/06/22 08:29:01;;;;;;;58.65;8.53;;;;;;;28.56;57.30;99709.79;1742104;81;21079;-35
2021/06/22 08:31:28;;;;;;;72.50;9.73;;;;;;;28.60;57.32;99711.25;1760787;80;21049;-40
2021/06/22 08:33:54;;;;;;;79.47;10.78;;;;;;;28.66;57.12;99705.84;1741655;80;22020;-34
2021/06/22 08:36:21;;;;;;;70.37;10.90;;;;;;;28.70;56.95;99705.07;1749351;80;20995;-40
2021/06/22 08:38:48;;;;;;;66.07;10.55;;;;;;;28.80;58.17;99701.97;1762691;80;21423;-40
2021/06/22 08:41:14;;;;;;;54.33;9.10;;;;;;;28.96;57.27;99705.59;1767110;81;21029;-34
2021/06/22 08:43:43;;;;;;;63.40;10.35;;;;;;;29.05;56.83;99712.40;1764716;81;21088;-34
2021/06/22 08:46:10;;;;;;;76.07;11.08;;;;;;;29.11;56.38;99712.36;1738639;81;21420;-40
2021/06/22 08:48:37;;;;;;;58.75;9.93;;;;;;;29.15;55.72;99701.66;1759669;81;21052;-40
2021/06/22 08:51:05;;;;;;;79.85;11.03;;;;;;;29.18;55.33;99700.56;1762223;80;22844;-34
2021/06/22 08:53:32;;;;;;;75.60;10.58;;;;;;;29.18;55.04;99698.72;1766052;81;21386;-34
2021/06/22 08:55:58;;;;;;;74.45;9.20;;;;;;;29.19;55.22;99696.38;1762004;81;20988;-35
2021/06/22 08:58:25;;;;;;;66.92;9.53;;;;;;;29.19;55.32;99694.19;1750788;81;21719;-35
2021/06/22 09:00:52;;;;;;;53.23;9.35;;;;;;;29.16;55.20;99700.17;1754273;81;21001;-35
2021/06/22 09:03:24;;;;;;;47.48;7.65;;;;;;;29.21;55.67;99702.97;1759397;80;21441;-35
2021/06/22 09:05:54;;;;;;;63.58;10.03;;;;;;;29.27;55.48;99705.98;1770037;80;21447;-34
2021/06/22 09:08:30;;;;;;;65.00;9.45;;;;;;;29.37;55.24;99705.55;1764982;81;21005;-35
2021/06/22 09:11:12;;;;;;;82.92;11.75;;;;;;;29.45;55.39;99695.93;1762679;80;20999;-35
2021/06/22 09:13:41;;;;;;;75.47;10.98;;;;;;;29.59;56.20;99707.74;1758449;81;21039;-35
2021/06/22 09:16:14;;;;;;;74.72;10.58;;;;;;;29.74;55.64;99703.67;1760468;81;21066;-41
2021/06/22 09:18:44;;;;;;;69.27;9.70;;;;;;;29.85;56.01;99712.15;1749008;81;21076;-40
2021/06/22 09:21:22;;;;;;;61.05;9.13;;;;;;;29.90;54.64;99709.40;1760577;81;21005;-41
2021/06/22 09:23:54;;;;;;;64.87;10.95;;;;;;;29.90;54.18;99713.94;1759203;80;21027;-41
2021/06/22 09:26:26;;;;;;;69.07;9.33;;;;;;;29.94;53.63;99713.53;1756525;81;20974;-41
2021/06/22 09:29:07;;;;;;;67.00;9.93;;;;;;;29.98;53.85;99716.83;1763153;81;21087;-41
2021/06/22 09:31:35;;;;;;;;;;;;;;;30.00;53.25;99718.87;1761090;80;21024;-41
2021/06/22 09:34:02;;;;;;;49.05;9.08;;;;;;;30.01;53.72;99718.37;1755975;80;20440;-35
2021/06/22 09:36:30;;;;;;;64.58;10.05;;;;;;;30.04;54.27;99722.16;1752394;80;21043;-35
2021/06/22 09:39:06;;;;;;;69.22;11.00;;;;;;;30.10;54.41;99725.65;1768715;81;21100;-41
2021/06/22 09:41:35;;;;;;;63.90;10.20;;;;;;;30.15;54.79;99723.39;1768100;81;20997;-41
2021/06/22 09:44:08;;;;;;;68.07;9.95;;;;;;;30.16;53.65;99719.23;1749143;81;21022;-41
2021/06/22 09:46:50;;;;;;;64.85;9.63;;;;;;;30.13;54.28;99715.45;1757630;81;20999;-35
2021/06/22 09:49:30;;;;;;;75.65;10.55;;;;;;;30.19;54.42;99720.28;1765417;80;20970;-35
2021/06/22 09:52:07;;;;;;;72.15;10.40;;;;;;;30.28;53.91;99709.67;1760841;80;21572;-35
2021/06/22 09:54:35;;;;;;;67.65;11.10;;;;;;;30.35;54.60;99716.20;1759573;81;21030;-34
2021/06/22 09:57:06;;;;;;;58.05;11.03;;;;;;;30.40;54.52;99726.08;1750394;81;21049;-39
2021/06/22 09:59:56;;;;;;;63.35;9.60;;;;;;;30.43;53.66;99719.89;1764604;81;20995;-39
2021/06/22 10:02:25;;;;;;;74.25;11.53;;;;;;;30.48;53.17;99720.32;1765369;81;21082;-39
2021/06/22 10:04:58;;;;;;;60.10;9.35;;;;;;;30.48;53.12;99726.22;1759450;81;20944;-34
2021/06/22 10:07:26;;;;;;;51.63;9.33;;;;;;;30.50;52.54;99724.72;1757034;80;21102;-35
2021/06/22 10:10:02;;;;;;;58.10;10.80;;;;;;;30.53;52.84;99725.80;1769971;80;20973;-34
2021/06/22 10:12:30;;;;;;;51.20;9.98;;;;;;;30.56;53.06;99730.43;1766020;80;21061;-39
2021/06/22 10:14:59;;;;;;;67.05;8.95;;;;;;;30.61;53.89;99729.48;1766499;81;21710;-34
2021/06/22 10:17:29;;;;;;;63.90;10.10;;;;;;;30.70;52.58;99726.47;1766735;80;21640;-35
2021/06/22 10:19:59;;;;;;;71.80;8.50;;;;;;;30.75;52.50;99734.16;1756701;80;20994;-36
2021/06/22 10:22:28;;;;;;;69.70;10.25;;;;;;;30.82;52.44;99728.53;1764543;80;21175;-35
2021/06/22 10:25:00;;;;;;;56.40;9.53;;;;;;;30.94;52.29;99730.08;1756818;81;21006;-40
2021/06/22 10:27:27;;;;;;;55.83;9.85;;;;;;;31.06;53.16;99730.77;1765318;81;21085;-41
2021/06/22 10:29:59;;;;;;;66.05;9.73;;;;;;;31.19;53.03;99732.66;1742496;80;21041;-41
2021/06/22 10:32:27;;;;;;;53.10;8.98;;;;;;;31.20;52.01;99740.64;1761533;80;20994;-36
2021/06/22 10:34:56;;;;;;;61.05;10.50;;;;;;;31.14;52.33;99735.82;1751219;81;20999;-41
2021/06/22 10:37:38;;;;;;;60.73;9.55;;;;;;;31.10;53.00;99733.05;1747233;80;21094;-41
2021/06/22 10:40:16;;;;;;;70.60;9.55;;;;;;;31.03;52.26;99737.33;1762547;80;21034;-35
2021/06/22 10:42:58;;;;;;;54.88;10.05;;;;;;;31.10;52.93;99741.15;1765590;81;21014;-35
2021/06/22 10:45:25;;;;;;;58.00;10.43;;;;;;;31.20;52.10;99738.44;1757954;80;21478;-40
2021/06/22 10:47:56;;;;;;;75.30;11.65;;;;;;;31.20;52.14;99743.34;1764293;81;21077;-35
2021/06/22 10:50:28;;;;;;;64.17;9.98;;;;;;;31.33;51.98;99748.95;1750394;81;21031;-39
2021/06/22 10:53:04;;;;;;;67.05;11.30;;;;;;;31.52;51.56;99747.04;1762043;81;21033;-40
2021/06/22 10:55:41;;;;;;;72.58;9.98;;;;;;;31.68;51.11;99735.61;1754472;80;21066;-34
2021/06/22 10:58:09;;;;;;;64.58;10.65;;;;;;;31.86;50.62;99748.38;1749582;80;21062;-40
2021/06/22 11:00:50;;;;;;;64.65;9.98;;;;;;;31.92;50.27;99743.72;1766093;80;20986;-40
2021/06/22 11:03:32;;;;;;;68.37;10.05;;;;;;;32.09;50.74;99740.20;1767426;81;21061;-35
2021/06/22 11:06:15;;;;;;;58.33;9.93;;;;;;;32.16;50.98;99742.64;1766962;80;21016;-36
2021/06/22 11:08:43;;;;;;;66.47;10.03;;;;;;;32.14;49.99;99738.41;1764733;80;21187;-40
2021/06/22 11:11:16;;;;;;;66.35;11.83;;;;;;;32.11;50.83;99744.10;1762440;80;20992;-40
2021/06/22 11:13:51;;;;;;;77.60;11.85;;;;;;;32.02;51.45;99735.05;1751457;80;21083;-35
2021/06/22 11:16:23;;;;;;;75.40;11.12;;;;;;;32.08;50.72;99737.16;1759528;81;21552;-40
2021/06/22 11:19:01;;;;;;;66.80;10.65;;;;;;;32.14;50.81;99742.46;1762317;81;21062;-41
2021/06/22 11:21:40;;;;;;;60.60;10.53;;;;;;;32.26;50.42;99733.13;1769796;81;21011;-35
2021/06/22 11:24:17;;;;;;;63.23;9.78;;;;;;;32.41;49.24;99734.31;1762631;81;21056;-40
2021/06/22 11:26:59;;;;;;;68.05;11.78;;;;;;;32.42;49.17;99734.69;1759031;80;21003;-35
2021/06/22 11:29:26;;;;;;;79.45;12.18;;;;;;;32.30;48.83;99736.73;1751240;81;21006;-39
2021/06/22 11:31:59;;;;;;;74.12;10.30;;;;;;;32.21;50.77;99732.22;1763175;81;21563;-34
2021/06/22 11:34:34;;;;;;;55.60;9.10;;;;;;;32.20;50.34;99723.77;1759503;81;20991;-39
2021/06/22 11:37:18;;;;;;;56.68;10.20;;;;;;;32.22;50.18;99725.80;1749573;80;21049;-38
2021/06/22 11:40:12;;;;;;;70.50;10.78;;;;;;;32.20;50.39;99726.97;1751635;81;21016;-35
2021/06/22 11:42:40;;;;;;;64.45;10.85;;;;;;;32.19;50.62;99723.92;1756813;80;21641;-39
2021/06/22 11:45:17;;;;;;;78.65;12.33;;;;;;;32.13;51.08;99721.32;1764588;81;21476;-40
2021/06/22 11:47:50;;;;;;;69.75;10.90;;;;;;;32.07;51.43;99720.58;1755937;81;21054;-34
2021/06/22 11:50:21;;;;;;;;;;;;;;;31.97;50.58;99723.83;1764811;81;21567;-34
2021/06/22 11:52:51;;;;;;;59.33;10.60;;;;;;;31.90;52.01;99716.83;1751244;81;20392;-40
2021/06/22 11:55:21;;;;;;;70.25;10.88;;;;;;;31.87;51.29;99724.38;1728621;81;21007;-34
2021/06/22 11:57:51;;;;;;;62.75;10.72;;;;;;;31.83;50.86;99728.38;1756182;81;21093;-40
2021/06/22 12:00:24;;;;;;;79.90;11.45;;;;;;;31.74;50.95;99722.00;1729415;81;21134;-34
2021/06/22 12:02:57;;;;;;;59.15;10.00;;;;;;;31.66;50.84;99720.52;1757232;81;21116;-34
2021/06/22 12:05:25;;;;;;;68.33;10.18;;;;;;;31.66;51.72;99720.52;1765699;80;21540;-40
2021/06/22 12:07:58;;;;;;;69.00;11.28;;;;;;;31.68;51.97;99721.24;1766180;81;21124;-38
2021/06/22 12:10:43;;;;;;;72.87;10.45;;;;;;;31.67;52.62;99722.25;1758399;81;21567;-40
2021/06/22 12:13:30;;;;;;;61.33;10.93;;;;;;;31.66;52.18;99725.92;1772499;81;21133;-40
2021/06/22 12:15:57;;;;;;;72.72;12.60;;;;;;;31.62;52.64;99725.39;1764824;80;21033;-36
2021/06/22 12:18:28;;;;;;;58.52;12.05;;;;;;;31.62;52.50;99713.73;1766908;80;21131;-40
2021/06/22 12:20:55;;;;;;;58.52;11.83;;;;;;;31.59;52.24;99728.38;1762681;80;21097;-41
2021/06/22 12:23:21;;;;;;;63.92;11.48;;;;;;;31.58;52.40;99736.14;1768042;80;21047;-35
2021/06/22 12:25:53;;;;;;;64.75;10.60;;;;;;;31.57;52.54;99733.09;1749721;80;21106;-40
2021/06/22 12:28:24;;;;;;;77.70;10.35;;;;;;;31.57;53.16;99730.38;1773625;80;21065;-35
2021/06/22 12:30:56;;;;;;;63.33;9.60;;;;;;;31.57;52.66;99726.33;1763721;80;21477;-35
2021/06/22 12:33:25;;;;;;;65.25;11.38;;;;;;;31.57;52.77;99725.48;1767623;80;21047;-35
2021/06/22 12:35:56;;;;;;;68.35;10.40;;;;;;;31.52;52.87;99726.77;1764432;80;20990;-35
2021/06/22 12:38:23;;;;;;;69.25;10.15;;;;;;;31.47;53.33;99729.06;1770509;80;21121;-35
2021/06/22 12:41:02;;;;;;;58.23;10.35;;;;;;;31.41;52.70;99727.45;1758534;80;21020;-35
2021/06/22 12:43:50;;;;;;;62.33;10.98;;;;;;;31.35;52.21;99724.83;1748710;80;21558;-40
2021/06/22 12:46:23;;;;;;;63.02;11.18;;;;;;;31.28;52.22;99729.13;1757107;80;21061;-40
2021/06/22 12:49:02;;;;;;;86.45;10.68;;;;;;;31.23;52.36;99723.27;1747801;80;21045;-36
2021/06/22 12:51:37;;;;;;;77.53;12.82;;;;;;;31.22;53.14;99726.98;1768399;80;21342;-34
2021/06/22 12:54:05;;;;;;;70.08;11.05;;;;;;;31.25;52.70;99734.34;1750700;80;21078;-35
2021/06/22 12:56:58;;;;;;;72.90;12.80;;;;;;;31.32;52.62;99735.95;1756846;80;21471;-40
2021/06/22 12:59:27;;;;;;;84.95;12.40;;;;;;;31.41;52.74;99737.75;1752769;80;21646;-40
2021/06/22 13:02:04;;;;;;;65.90;11.30;;;;;;;31.51;53.34;99740.44;1766474;80;21039;-35
2021/06/22 13:04:42;;;;;;;68.70;10.68;;;;;;;31.53;53.52;99741.13;1755318;80;21034;-35
2021/06/22 13:07:14;;;;;;;81.97;12.05;;;;;;;31.53;53.41;99739.28;1767483;80;21680;-40
2021/06/22 13:09:42;;;;;;;78.50;12.68;;;;;;;31.54;53.14;99741.48;1750775;80;21526;-35
2021/06/22 13:12:21;;;;;;;64.03;10.35;;;;;;;31.48;52.37;99742.92;1760304;80;21076;-40
2021/06/22 13:14:50;;;;;;;84.90;13.08;;;;;;;31.39;52.33;99745.67;1761675;80;21002;-35
2021/06/22 13:17:20;;;;;;;72.78;12.15;;;;;;;31.25;52.92;99737.51;1757012;80;21063;-41
2021/06/22 13:19:56;;;;;;;61.88;10.48;;;;;;;31.19;52.42;99734.01;1768961;80;21064;-35
2021/06/22 13:22:34;;;;;;;58.52;10.53;;;;;;;31.15;53.75;99727.22;1767259;80;21641;-41
2021/06/22 13:25:01;;;;;;;78.35;11.78;;;;;;;31.15;53.14;99725.36;1748972;80;21075;-35
2021/06/22 13:27:30;;;;;;;82.27;11.90;;;;;;;31.19;52.97;99716.45;1763020;80;21045;-36
2021/06/22 13:30:07;;;;;;;83.90;12.15;;;;;;;31.22;53.02;99717.02;1757083;80;21061;-40
2021/06/22 13:32:41;;;;;;;88.90;15.18;;;;;;;31.27;52.78;99715.77;1764443;80;21061;-36
2021/06/22 13:35:18;;;;;;;90.30;11.57;;;;;;;31.34;52.79;99707.42;1766399;80;21032;-40
